sensor_id;sensor_type;location;lat;lon;timestamp;pressure;altitude;pressure_sealevel;temperature;humidity
71057;BME280;58380;48.312;9.246;2023-04-27T07:44:43;93692.19;;;8.95;76.68
71057;BME280;58380;48.312;9.246;2023-04-27T07:47:11;93666.41;;;8.97;72.77
71057;BME280;58380;48.312;9.246;2023-04-27T07:49:38;93692.22;;;9.22;70.46
71057;BME280;58380;48.312;9.246;2023-04-27T07:52:04;93688.00;;;9.21;70.14
71057;BME280;58380;48.312;9.246;2023-04-27T07:54:29;93679.28;;;9.21;69.68
71057;BME280;58380;48.312;9.246;2023-04-27T07:56:55;93638.00;;;8.99;70.16
71057;BME280;58380;48.312;9.246;2023-04-27T07:59:21;93679.72;;;9.35;68.81
71057;BME280;58380;48.312;9.246;2023-04-27T08:01:47;93637.66;;;9.18;69.67
71057;BME280;58380;48.312;9.246;2023-04-27T08:04:12;93693.44;;;9.64;69.42
71057;BME280;58380;48.312;9.246;2023-04-27T08:06:38;93691.41;;;9.71;70.33
71057;BME280;58380;48.312;9.246;2023-04-27T08:09:04;93680.56;;;9.72;69.83
71057;BME280;58380;48.312;9.246;2023-04-27T08:11:30;93678.06;;;9.88;68.64
71057;BME280;58380;48.312;9.246;2023-04-27T08:13:55;93677.91;;;10.00;64.62
71057;BME280;58380;48.312;9.246;2023-04-27T08:16:21;93617.28;;;9.67;65.11
71057;BME280;58380;48.312;9.246;2023-04-27T08:18:48;93680.06;;;10.08;65.56
71057;BME280;58380;48.312;9.246;2023-04-27T08:21:14;93644.91;;;9.97;66.96
71057;BME280;58380;48.312;9.246;2023-04-27T08:23:40;93671.47;;;10.23;71.10
71057;BME280;58380;48.312;9.246;2023-04-27T08:26:06;93681.44;;;10.53;70.92
71057;BME280;58380;48.312;9.246;2023-04-27T08:28:32;93610.53;;;10.24;68.31
71057;BME280;58380;48.312;9.246;2023-04-27T08:30:58;93667.78;;;10.66;69.24
71057;BME280;58380;48.312;9.246;2023-04-27T08:33:24;93627.31;;;10.50;66.84
71057;BME280;58380;48.312;9.246;2023-04-27T08:35:49;93692.78;;;11.01;66.38
71057;BME280;58380;48.312;9.246;2023-04-27T08:38:17;93658.94;;;10.98;66.46
71057;BME280;58380;48.312;9.246;2023-04-27T08:40:43;93661.38;;;11.15;65.44
71057;BME280;58380;48.312;9.246;2023-04-27T08:43:09;93615.34;;;10.95;63.64
71057;BME280;58380;48.312;9.246;2023-04-27T08:45:35;93659.25;;;11.17;61.98
71057;BME280;58380;48.312;9.246;2023-04-27T08:48:00;93661.09;;;11.06;61.68
71057;BME280;58380;48.312;9.246;2023-04-27T08:50:26;93677.50;;;11.13;60.08
71057;BME280;58380;48.312;9.246;2023-04-27T08:52:51;93651.81;;;10.98;60.39
71057;BME280;58380;48.312;9.246;2023-04-27T08:55:18;93663.25;;;11.30;62.49
71057;BME280;58380;48.312;9.246;2023-04-27T08:57:56;93670.69;;;11.48;60.65
71057;BME280;58380;48.312;9.246;2023-04-27T09:00:23;93587.63;;;11.08;58.77
71057;BME280;58380;48.312;9.246;2023-04-27T09:02:50;93675.72;;;11.60;57.30
71057;BME280;58380;48.312;9.246;2023-04-27T09:05:21;93640.81;;;11.48;58.60
71057;BME280;58380;48.312;9.246;2023-04-27T09:08:03;93642.13;;;11.35;57.65
71057;BME280;58380;48.312;9.246;2023-04-27T09:10:46;93678.88;;;11.41;57.42
71057;BME280;58380;48.312;9.246;2023-04-27T09:13:13;93619.84;;;11.00;57.55
71057;BME280;58380;48.312;9.246;2023-04-27T09:15:43;93662.22;;;11.31;57.14
71057;BME280;58380;48.312;9.246;2023-04-27T09:20:49;93631.00;;;11.17;61.44
71057;BME280;58380;48.312;9.246;2023-04-27T09:26:01;93576.56;;;11.11;57.84
71057;BME280;58380;48.312;9.246;2023-04-27T09:28:30;93583.97;;;11.14;56.45
71057;BME280;58380;48.312;9.246;2023-04-27T09:30:58;93581.88;;;11.27;58.15
71057;BME280;58380;48.312;9.246;2023-04-27T09:33:26;93521.31;;;10.89;56.91
71057;BME280;58380;48.312;9.246;2023-04-27T09:35:54;93634.50;;;11.74;56.61
71057;BME280;58380;48.312;9.246;2023-04-27T09:38:22;93671.03;;;11.98;57.61
71057;BME280;58380;48.312;9.246;2023-04-27T09:40:49;93676.84;;;12.05;55.94
71057;BME280;58380;48.312;9.246;2023-04-27T09:43:16;93680.31;;;12.16;55.54
71057;BME280;58380;48.312;9.246;2023-04-27T09:45:42;93668.66;;;12.17;54.35
71057;BME280;58380;48.312;9.246;2023-04-27T09:48:09;93599.06;;;11.60;57.27
71057;BME280;58380;48.312;9.246;2023-04-27T09:50:37;93669.72;;;12.11;59.83
71057;BME280;58380;48.312;9.246;2023-04-27T09:53:10;93673.69;;;12.23;56.48
71057;BME280;58380;48.312;9.246;2023-04-27T09:55:50;93665.19;;;12.37;55.64
71057;BME280;58380;48.312;9.246;2023-04-27T09:58:49;93668.38;;;12.08;56.58
71057;BME280;58380;48.312;9.246;2023-04-27T10:01:47;93598.81;;;11.66;60.27
71057;BME280;58380;48.312;9.246;2023-04-27T10:05:01;93660.94;;;12.41;61.14
71057;BME280;58380;48.312;9.246;2023-04-27T10:07:39;93664.34;;;12.62;56.26
71057;BME280;58380;48.312;9.246;2023-04-27T10:10:05;93610.44;;;12.12;58.14
71057;BME280;58380;48.312;9.246;2023-04-27T10:12:39;93608.34;;;12.03;57.03
71057;BME280;58380;48.312;9.246;2023-04-27T10:15:15;93618.94;;;11.93;54.68
71057;BME280;58380;48.312;9.246;2023-04-27T10:17:48;93598.28;;;11.75;55.71
71057;BME280;58380;48.312;9.246;2023-04-27T10:20:28;93642.44;;;11.79;55.49
71057;BME280;58380;48.312;9.246;2023-04-27T10:22:58;93626.81;;;11.52;57.48
71057;BME280;58380;48.312;9.246;2023-04-27T10:25:35;93669.97;;;12.09;57.49
71057;BME280;58380;48.312;9.246;2023-04-27T10:28:02;93593.75;;;11.85;56.12
71057;BME280;58380;48.312;9.246;2023-04-27T10:30:33;93664.59;;;12.60;55.80
71057;BME280;58380;48.312;9.246;2023-04-27T10:33:07;93601.34;;;12.54;53.10
71057;BME280;58380;48.312;9.246;2023-04-27T10:35:37;93667.91;;;13.02;57.45
71057;BME280;58380;48.312;9.246;2023-04-27T10:40:57;93529.72;;;12.19;59.94
71057;BME280;58380;48.312;9.246;2023-04-27T10:43:27;93590.19;;;12.57;55.93
71057;BME280;58380;48.312;9.246;2023-04-27T10:46:09;93611.38;;;12.57;54.87
71057;BME280;58380;48.312;9.246;2023-04-27T10:48:38;93664.34;;;12.62;55.23
71057;BME280;58380;48.312;9.246;2023-04-27T10:51:07;93588.47;;;11.65;54.42
71057;BME280;58380;48.312;9.246;2023-04-27T10:53:34;93614.13;;;11.85;57.24
71057;BME280;58380;48.312;9.246;2023-04-27T10:56:01;93586.38;;;11.77;55.60
71057;BME280;58380;48.312;9.246;2023-04-27T10:58:29;93614.69;;;11.87;54.66
71057;BME280;58380;48.312;9.246;2023-04-27T11:01:00;93538.00;;;11.20;56.87
71057;BME280;58380;48.312;9.246;2023-04-27T11:03:28;93595.88;;;11.63;56.86
71057;BME280;58380;48.312;9.246;2023-04-27T11:05:58;93657.50;;;12.25;54.99
71057;BME280;58380;48.312;9.246;2023-04-27T11:08:28;93628.69;;;12.23;57.29
71057;BME280;58380;48.312;9.246;2023-04-27T11:11:00;93653.50;;;12.53;56.37
71057;BME280;58380;48.312;9.246;2023-04-27T11:13:26;93653.75;;;12.62;53.85
71057;BME280;58380;48.312;9.246;2023-04-27T11:15:58;93645.00;;;12.66;52.94
71057;BME280;58380;48.312;9.246;2023-04-27T11:18:26;93591.91;;;12.17;55.03
71057;BME280;58380;48.312;9.246;2023-04-27T11:21:17;93656.88;;;12.74;54.66
71057;BME280;58380;48.312;9.246;2023-04-27T11:23:44;93641.50;;;12.81;54.15
71057;BME280;58380;48.312;9.246;2023-04-27T11:26:19;93648.06;;;12.94;53.03
71057;BME280;58380;48.312;9.246;2023-04-27T11:29:02;93653.00;;;13.16;54.00
71057;BME280;58380;48.312;9.246;2023-04-27T11:31:43;93650.09;;;13.12;51.84
71057;BME280;58380;48.312;9.246;2023-04-27T11:34:22;93653.72;;;12.67;51.14
71057;BME280;58380;48.312;9.246;2023-04-27T11:36:59;93637.31;;;12.60;49.33
71057;BME280;58380;48.312;9.246;2023-04-27T11:39:28;93652.34;;;12.80;47.44
71057;BME280;58380;48.312;9.246;2023-04-27T11:42:16;93615.31;;;12.69;47.44
71057;BME280;58380;48.312;9.246;2023-04-27T11:44:53;93665.00;;;12.98;48.91
71057;BME280;58380;48.312;9.246;2023-04-27T11:47:21;93644.75;;;13.23;48.36
71057;BME280;58380;48.312;9.246;2023-04-27T11:49:48;93640.66;;;13.51;49.46
71057;BME280;58380;48.312;9.246;2023-04-27T11:52:30;93563.69;;;13.16;47.39
71057;BME280;58380;48.312;9.246;2023-04-27T11:54:58;93583.44;;;13.40;47.70
71057;BME280;58380;48.312;9.246;2023-04-27T11:57:26;93614.44;;;13.44;47.93
71057;BME280;58380;48.312;9.246;2023-04-27T11:59:54;93641.81;;;13.74;50.65
71057;BME280;58380;48.312;9.246;2023-04-27T12:02:26;93578.06;;;13.50;48.21
71057;BME280;58380;48.312;9.246;2023-04-27T12:04:53;93639.13;;;13.79;48.36
71057;BME280;58380;48.312;9.246;2023-04-27T12:07:19;93652.66;;;13.77;46.98
71057;BME280;58380;48.312;9.246;2023-04-27T12:09:44;93638.59;;;13.77;48.68
71057;BME280;58380;48.312;9.246;2023-04-27T12:12:11;93636.25;;;13.75;48.85
71057;BME280;58380;48.312;9.246;2023-04-27T12:14:38;93582.13;;;13.37;47.21
71057;BME280;58380;48.312;9.246;2023-04-27T12:17:03;93610.97;;;13.49;47.72
71057;BME280;58380;48.312;9.246;2023-04-27T12:19:29;93580.91;;;13.19;49.09
71057;BME280;58380;48.312;9.246;2023-04-27T12:21:56;93629.09;;;13.31;50.78
71057;BME280;58380;48.312;9.246;2023-04-27T12:24:22;93596.34;;;13.07;50.85
71057;BME280;58380;48.312;9.246;2023-04-27T12:26:48;93622.75;;;13.22;50.61
71057;BME280;58380;48.312;9.246;2023-04-27T12:29:14;93585.94;;;13.21;54.58
71057;BME280;58380;48.312;9.246;2023-04-27T12:31:40;93617.78;;;13.55;56.09
71057;BME280;58380;48.312;9.246;2023-04-27T12:34:24;93635.69;;;13.78;53.53
71057;BME280;58380;48.312;9.246;2023-04-27T12:36:55;93575.25;;;13.36;49.02
71057;BME280;58380;48.312;9.246;2023-04-27T12:39:22;93639.03;;;13.89;51.49
71057;BME280;58380;48.312;9.246;2023-04-27T12:41:52;93606.50;;;13.78;51.78
71057;BME280;58380;48.312;9.246;2023-04-27T12:44:19;93637.81;;;13.76;48.24
71057;BME280;58380;48.312;9.246;2023-04-27T12:46:45;93617.88;;;13.45;49.18
71057;BME280;58380;48.312;9.246;2023-04-27T12:49:15;93588.81;;;13.24;48.89
71057;BME280;58380;48.312;9.246;2023-04-27T12:51:41;93631.63;;;13.52;51.17
71057;BME280;58380;48.312;9.246;2023-04-27T12:54:08;93633.88;;;13.69;53.23
71057;BME280;58380;48.312;9.246;2023-04-27T12:56:35;93610.63;;;13.61;52.84
71057;BME280;58380;48.312;9.246;2023-04-27T12:59:00;93621.59;;;13.83;53.84
71057;BME280;58380;48.312;9.246;2023-04-27T13:01:27;93617.34;;;13.82;51.25
71057;BME280;58380;48.312;9.246;2023-04-27T13:03:53;93622.34;;;13.89;53.01
71057;BME280;58380;48.312;9.246;2023-04-27T13:06:20;93626.41;;;13.76;50.83
71057;BME280;58380;48.312;9.246;2023-04-27T13:08:49;93602.44;;;13.52;53.72
71057;BME280;58380;48.312;9.246;2023-04-27T13:11:15;93590.59;;;13.39;55.78
71057;BME280;58380;48.312;9.246;2023-04-27T13:13:43;93604.44;;;13.26;56.08
71057;BME280;58380;48.312;9.246;2023-04-27T13:16:09;93623.19;;;13.40;53.42
71057;BME280;58380;48.312;9.246;2023-04-27T13:18:36;93600.53;;;13.18;51.96
71057;BME280;58380;48.312;9.246;2023-04-27T13:21:02;93609.50;;;13.27;54.33
71057;BME280;58380;48.312;9.246;2023-04-27T13:23:29;93554.78;;;12.97;54.53
71057;BME280;58380;48.312;9.246;2023-04-27T13:25:55;93541.84;;;12.90;55.87
71057;BME280;58380;48.312;9.246;2023-04-27T13:28:21;93557.50;;;12.87;55.70
71057;BME280;58380;48.312;9.246;2023-04-27T13:30:46;93556.41;;;12.93;55.94
71057;BME280;58380;48.312;9.246;2023-04-27T13:33:13;93586.97;;;13.20;53.51
71057;BME280;58380;48.312;9.246;2023-04-27T13:35:40;93563.25;;;12.99;52.95
71057;BME280;58380;48.312;9.246;2023-04-27T13:38:06;93546.13;;;12.81;51.39
71057;BME280;58380;48.312;9.246;2023-04-27T13:40:31;93633.91;;;13.19;53.34
71057;BME280;58380;48.312;9.246;2023-04-27T13:42:57;93617.19;;;13.24;52.74
71057;BME280;58380;48.312;9.246;2023-04-27T13:45:23;93575.13;;;13.07;56.78
71057;BME280;58380;48.312;9.246;2023-04-27T13:47:48;93605.13;;;13.47;55.92
71057;BME280;58380;48.312;9.246;2023-04-27T13:50:14;93621.72;;;13.63;55.55
71057;BME280;58380;48.312;9.246;2023-04-27T13:52:40;93590.22;;;13.56;53.62
71057;BME280;58380;48.312;9.246;2023-04-27T13:55:07;93561.16;;;13.75;53.05
71057;BME280;58380;48.312;9.246;2023-04-27T13:57:35;93587.91;;;14.37;51.31
71057;BME280;58380;48.312;9.246;2023-04-27T14:00:01;93573.91;;;14.31;48.74
71057;BME280;58380;48.312;9.246;2023-04-27T14:02:27;93615.69;;;14.74;51.48
71057;BME280;58380;48.312;9.246;2023-04-27T14:04:54;93613.41;;;14.86;54.44
71057;BME280;58380;48.312;9.246;2023-04-27T14:07:20;93593.59;;;14.78;54.63
71057;BME280;58380;48.312;9.246;2023-04-27T14:09:46;93608.69;;;14.83;53.54
71057;BME280;58380;48.312;9.246;2023-04-27T14:12:12;93605.13;;;14.69;52.80
71057;BME280;58380;48.312;9.246;2023-04-27T14:14:37;93589.59;;;14.52;49.85
71057;BME280;58380;48.312;9.246;2023-04-27T14:17:03;93612.31;;;14.39;48.85
71057;BME280;58380;48.312;9.246;2023-04-27T14:19:30;93566.78;;;13.97;49.88
71057;BME280;58380;48.312;9.246;2023-04-27T14:21:56;93566.19;;;13.76;49.49
71057;BME280;58380;48.312;9.246;2023-04-27T14:24:22;93594.44;;;13.91;52.52
71057;BME280;58380;48.312;9.246;2023-04-27T14:26:48;93603.66;;;13.99;55.68
71057;BME280;58380;48.312;9.246;2023-04-27T14:29:15;93594.91;;;13.98;56.43
71057;BME280;58380;48.312;9.246;2023-04-27T14:31:41;93586.00;;;13.84;55.43
71057;BME280;58380;48.312;9.246;2023-04-27T14:34:07;93579.41;;;13.81;57.04
71057;BME280;58380;48.312;9.246;2023-04-27T14:36:33;93588.66;;;13.84;55.98
71057;BME280;58380;48.312;9.246;2023-04-27T14:38:59;93603.44;;;13.95;56.49
71057;BME280;58380;48.312;9.246;2023-04-27T14:41:27;93584.53;;;13.68;55.35
71057;BME280;58380;48.312;9.246;2023-04-27T14:43:53;93616.03;;;13.79;56.89
71057;BME280;58380;48.312;9.246;2023-04-27T14:46:18;93614.81;;;13.67;56.92
71057;BME280;58380;48.312;9.246;2023-04-27T14:48:45;93605.41;;;13.45;56.74
71057;BME280;58380;48.312;9.246;2023-04-27T14:51:14;93578.47;;;13.23;57.55
71057;BME280;58380;48.312;9.246;2023-04-27T14:53:41;93565.38;;;12.97;57.08
71057;BME280;58380;48.312;9.246;2023-04-27T14:56:07;93583.06;;;13.12;58.54
71057;BME280;58380;48.312;9.246;2023-04-27T14:58:32;93600.97;;;13.25;55.87
71057;BME280;58380;48.312;9.246;2023-04-27T15:01:01;93600.97;;;13.25;55.96
71057;BME280;58380;48.312;9.246;2023-04-27T15:03:28;93590.72;;;13.19;58.85
71057;BME280;58380;48.312;9.246;2023-04-27T15:05:56;93590.41;;;13.20;56.96
71057;BME280;58380;48.312;9.246;2023-04-27T15:08:22;93613.69;;;13.38;58.24
71057;BME280;58380;48.312;9.246;2023-04-27T15:10:48;93608.66;;;13.32;58.60
71057;BME280;58380;48.312;9.246;2023-04-27T15:13:13;93607.38;;;13.29;57.89
71057;BME280;58380;48.312;9.246;2023-04-27T15:15:39;93612.06;;;13.37;57.06
71057;BME280;58380;48.312;9.246;2023-04-27T15:18:04;93552.91;;;12.98;56.96
71057;BME280;58380;48.312;9.246;2023-04-27T15:20:30;93575.84;;;13.17;58.23
71057;BME280;58380;48.312;9.246;2023-04-27T15:22:56;93560.81;;;13.13;57.76
71057;BME280;58380;48.312;9.246;2023-04-27T15:25:22;93577.19;;;13.15;58.69
71057;BME280;58380;48.312;9.246;2023-04-27T15:27:47;93577.47;;;13.19;57.68
71057;BME280;58380;48.312;9.246;2023-04-27T15:30:13;93587.25;;;13.23;58.14
71057;BME280;58380;48.312;9.246;2023-04-27T15:32:40;93595.47;;;13.16;59.55
71057;BME280;58380;48.312;9.246;2023-04-27T15:35:05;93563.31;;;12.89;60.81
71057;BME280;58380;48.312;9.246;2023-04-27T15:37:34;93610.84;;;13.20;61.44
71057;BME280;58380;48.312;9.246;2023-04-27T15:40:03;93551.69;;;12.80;60.77
71057;BME280;58380;48.312;9.246;2023-04-27T15:42:33;93546.44;;;12.74;61.09
71057;BME280;58380;48.312;9.246;2023-04-27T15:44:58;93613.59;;;12.99;60.77
71057;BME280;58380;48.312;9.246;2023-04-27T15:47:24;93620.22;;;12.97;58.74
71057;BME280;58380;48.312;9.246;2023-04-27T15:49:50;93537.56;;;12.45;59.31
71057;BME280;58380;48.312;9.246;2023-04-27T15:52:16;93551.28;;;12.57;62.68
71057;BME280;58380;48.312;9.246;2023-04-27T15:54:42;93605.66;;;12.99;63.02
71057;BME280;58380;48.312;9.246;2023-04-27T15:57:07;93588.94;;;13.04;59.33
71057;BME280;58380;48.312;9.246;2023-04-27T15:59:32;93559.06;;;12.88;59.76
71057;BME280;58380;48.312;9.246;2023-04-27T16:01:58;93586.78;;;13.11;61.11
71057;BME280;58380;48.312;9.246;2023-04-27T16:04:23;93572.75;;;13.10;61.27
71057;BME280;58380;48.312;9.246;2023-04-27T16:06:49;93584.06;;;13.21;60.94
71057;BME280;58380;48.312;9.246;2023-04-27T16:09:14;93544.13;;;13.07;58.84
71057;BME280;58380;48.312;9.246;2023-04-27T16:11:40;93574.47;;;13.30;61.30
71057;BME280;58380;48.312;9.246;2023-04-27T16:14:07;93571.56;;;13.32;60.14
71057;BME280;58380;48.312;9.246;2023-04-27T16:16:32;93528.97;;;13.18;60.67
71057;BME280;58380;48.312;9.246;2023-04-27T16:18:58;93582.78;;;13.58;59.66
71057;BME280;58380;48.312;9.246;2023-04-27T16:21:24;93570.28;;;13.64;58.81
71057;BME280;58380;48.312;9.246;2023-04-27T16:23:51;93583.38;;;14.13;59.07
71057;BME280;58380;48.312;9.246;2023-04-27T16:26:16;93561.84;;;14.39;58.98
71057;BME280;58380;48.312;9.246;2023-04-27T16:28:42;93569.28;;;14.66;54.41
71057;BME280;58380;48.312;9.246;2023-04-27T16:31:07;93535.47;;;14.48;56.22
71057;BME280;58380;48.312;9.246;2023-04-27T16:33:33;93554.03;;;14.48;53.55
71057;BME280;58380;48.312;9.246;2023-04-27T16:35:58;93542.34;;;14.54;57.57
71057;BME280;58380;48.312;9.246;2023-04-27T16:38:24;93544.56;;;14.41;54.68
71057;BME280;58380;48.312;9.246;2023-04-27T16:40:49;93544.72;;;14.50;56.18
71057;BME280;58380;48.312;9.246;2023-04-27T16:43:16;93554.47;;;14.60;54.88
71057;BME280;58380;48.312;9.246;2023-04-27T16:45:41;93544.94;;;14.59;54.78
71057;BME280;58380;48.312;9.246;2023-04-27T16:48:07;93575.91;;;14.69;56.47
71057;BME280;58380;48.312;9.246;2023-04-27T16:50:36;93540.09;;;14.37;57.28
71057;BME280;58380;48.312;9.246;2023-04-27T16:53:10;93543.78;;;14.41;55.55
71057;BME280;58380;48.312;9.246;2023-04-27T16:55:43;93526.31;;;14.11;56.67
71057;BME280;58380;48.312;9.246;2023-04-27T16:58:09;93572.66;;;14.23;57.16
71057;BME280;58380;48.312;9.246;2023-04-27T17:00:35;93492.41;;;13.49;57.56
71057;BME280;58380;48.312;9.246;2023-04-27T17:03:00;93547.06;;;13.79;57.34
71057;BME280;58380;48.312;9.246;2023-04-27T17:05:26;93574.16;;;13.76;56.77
71057;BME280;58380;48.312;9.246;2023-04-27T17:07:51;93569.31;;;13.49;59.94
71057;BME280;58380;48.312;9.246;2023-04-27T17:10:17;93540.38;;;13.13;61.13
71057;BME280;58380;48.312;9.246;2023-04-27T17:12:43;93507.78;;;12.73;59.48
71057;BME280;58380;48.312;9.246;2023-04-27T17:15:09;93575.84;;;13.17;59.55
71057;BME280;58380;48.312;9.246;2023-04-27T17:17:36;93568.75;;;13.08;59.27
71057;BME280;58380;48.312;9.246;2023-04-27T17:20:04;93564.81;;;13.00;60.25
71057;BME280;58380;48.312;9.246;2023-04-27T17:22:31;93578.09;;;12.95;61.34
71057;BME280;58380;48.312;9.246;2023-04-27T17:24:57;93566.75;;;12.89;61.09
71057;BME280;58380;48.312;9.246;2023-04-27T17:27:23;93536.34;;;12.77;60.27
71057;BME280;58380;48.312;9.246;2023-04-27T17:29:48;93524.28;;;12.50;62.87
71057;BME280;58380;48.312;9.246;2023-04-27T17:32:15;93556.53;;;12.62;63.10
71057;BME280;58380;48.312;9.246;2023-04-27T17:34:40;93532.31;;;12.35;63.34
71057;BME280;58380;48.312;9.246;2023-04-27T17:37:06;93543.91;;;12.49;63.46
71057;BME280;58380;48.312;9.246;2023-04-27T17:39:32;93556.31;;;12.59;62.77
71057;BME280;58380;48.312;9.246;2023-04-27T17:41:58;93540.47;;;12.48;62.95
71057;BME280;58380;48.312;9.246;2023-04-27T17:44:24;93572.44;;;12.62;62.78
71057;BME280;58380;48.312;9.246;2023-04-27T17:46:50;93568.75;;;12.58;63.31
71057;BME280;58380;48.312;9.246;2023-04-27T17:49:16;93560.59;;;12.44;63.92
71057;BME280;58380;48.312;9.246;2023-04-27T17:51:43;93561.72;;;12.33;63.62
71057;BME280;58380;48.312;9.246;2023-04-27T17:54:10;93528.72;;;11.90;64.13
71057;BME280;58380;48.312;9.246;2023-04-27T17:56:36;93524.22;;;11.75;64.64
71057;BME280;58380;48.312;9.246;2023-04-27T17:59:02;93569.72;;;11.92;67.43
71057;BME280;58380;48.312;9.246;2023-04-27T18:01:28;93541.69;;;11.65;66.37
71057;BME280;58380;48.312;9.246;2023-04-27T18:03:54;93561.81;;;11.61;65.86
71057;BME280;58380;48.312;9.246;2023-04-27T18:06:19;93555.97;;;11.54;66.70
71057;BME280;58380;48.312;9.246;2023-04-27T18:08:48;93559.41;;;11.39;68.65
71057;BME280;58380;48.312;9.246;2023-04-27T18:11:13;93550.41;;;11.15;68.80
71057;BME280;58380;48.312;9.246;2023-04-27T18:13:40;93578.94;;;11.23;69.08
71057;BME280;58380;48.312;9.246;2023-04-27T18:16:06;93574.47;;;11.13;69.51
71057;BME280;58380;48.312;9.246;2023-04-27T18:18:32;93556.44;;;10.90;70.40
71057;BME280;58380;48.312;9.246;2023-04-27T18:20:57;93588.16;;;10.95;70.78
71057;BME280;58380;48.312;9.246;2023-04-27T18:23:22;93584.16;;;10.82;71.08
71057;BME280;58380;48.312;9.246;2023-04-27T18:25:48;93601.84;;;10.76;72.33
71057;BME280;58380;48.312;9.246;2023-04-27T18:28:13;93523.19;;;10.15;73.22
71057;BME280;58380;48.312;9.246;2023-04-27T18:30:39;93583.66;;;10.27;74.70
71057;BME280;58380;48.312;9.246;2023-04-27T18:33:05;93561.88;;;10.00;75.38
71057;BME280;58380;48.312;9.246;2023-04-27T18:35:30;93585.88;;;10.03;76.10
71057;BME280;58380;48.312;9.246;2023-04-27T18:37:55;93590.59;;;9.96;76.53
71057;BME280;58380;48.312;9.246;2023-04-27T18:40:21;93558.94;;;9.54;77.45
71057;BME280;58380;48.312;9.246;2023-04-27T18:42:47;93600.47;;;9.74;78.05
71057;BME280;58380;48.312;9.246;2023-04-27T18:45:14;93586.63;;;9.56;78.84
71057;BME280;58380;48.312;9.246;2023-04-27T18:47:39;93560.38;;;9.34;79.67
71057;BME280;58380;48.312;9.246;2023-04-27T18:50:05;93579.94;;;9.43;79.77
71057;BME280;58380;48.312;9.246;2023-04-27T18:52:31;93504.72;;;8.93;79.42
71057;BME280;58380;48.312;9.246;2023-04-27T18:54:56;93544.19;;;9.20;80.32
71057;BME280;58380;48.312;9.246;2023-04-27T18:57:24;93574.00;;;9.26;80.19
71057;BME280;58380;48.312;9.246;2023-04-27T18:59:50;93598.28;;;9.33;80.84
71057;BME280;58380;48.312;9.246;2023-04-27T19:02:15;93587.16;;;9.26;80.68
71057;BME280;58380;48.312;9.246;2023-04-27T19:04:41;93536.97;;;8.78;81.14
71057;BME280;58380;48.312;9.246;2023-04-27T19:07:06;93587.53;;;9.07;81.16
71057;BME280;58380;48.312;9.246;2023-04-27T19:09:31;93590.91;;;9.03;81.10
71057;BME280;58380;48.312;9.246;2023-04-27T19:11:57;93599.53;;;8.98;81.57
71057;BME280;58380;48.312;9.246;2023-04-27T19:14:22;93583.25;;;8.74;82.29
71057;BME280;58380;48.312;9.246;2023-04-27T19:16:49;93592.06;;;8.63;83.20
71057;BME280;58380;48.312;9.246;2023-04-27T19:19:15;93612.50;;;8.56;83.96
71057;BME280;58380;48.312;9.246;2023-04-27T19:21:40;93602.34;;;8.42;84.54
71057;BME280;58380;48.312;9.246;2023-04-27T19:24:08;93583.66;;;8.22;84.92
71057;BME280;58380;48.312;9.246;2023-04-27T19:26:34;93616.06;;;8.28;85.39
71057;BME280;58380;48.312;9.246;2023-04-27T19:29:00;93616.50;;;8.19;85.76
71057;BME280;58380;48.312;9.246;2023-04-27T19:31:26;93594.81;;;7.90;86.33
71057;BME280;58380;48.312;9.246;2023-04-27T19:33:51;93582.81;;;7.77;87.12
71057;BME280;58380;48.312;9.246;2023-04-27T19:36:16;93603.34;;;7.81;87.83
71057;BME280;58380;48.312;9.246;2023-04-27T19:38:42;93616.97;;;7.77;88.69
71057;BME280;58380;48.312;9.246;2023-04-27T19:41:07;93601.53;;;7.64;89.18
71057;BME280;58380;48.312;9.246;2023-04-27T19:43:33;93580.53;;;7.47;89.84
71057;BME280;58380;48.312;9.246;2023-04-27T19:46:01;93600.19;;;7.62;89.43
71057;BME280;58380;48.312;9.246;2023-04-27T19:48:27;93610.28;;;7.70;89.28
71057;BME280;58380;48.312;9.246;2023-04-27T19:50:52;93584.94;;;7.64;89.49
71057;BME280;58380;48.312;9.246;2023-04-27T19:53:18;93574.94;;;7.61;90.95
71057;BME280;58380;48.312;9.246;2023-04-27T19:55:44;93563.78;;;7.53;90.63
71057;BME280;58380;48.312;9.246;2023-04-27T19:58:10;93568.81;;;7.55;90.28
71057;BME280;58380;48.312;9.246;2023-04-27T20:00:35;93592.13;;;7.68;90.10
71057;BME280;58380;48.312;9.246;2023-04-27T20:03:00;93592.59;;;7.65;89.97
71057;BME280;58380;48.312;9.246;2023-04-27T20:05:26;93584.16;;;7.63;90.50
71057;BME280;58380;48.312;9.246;2023-04-27T20:07:51;93601.69;;;7.74;89.86
71057;BME280;58380;48.312;9.246;2023-04-27T20:10:17;93602.31;;;7.82;90.00
71057;BME280;58380;48.312;9.246;2023-04-27T20:12:42;93590.44;;;7.79;89.39
71057;BME280;58380;48.312;9.246;2023-04-27T20:15:08;93584.72;;;7.82;88.97
71057;BME280;58380;48.312;9.246;2023-04-27T20:17:34;93593.53;;;7.93;88.85
71057;BME280;58380;48.312;9.246;2023-04-27T20:20:00;93560.66;;;7.73;88.59
71057;BME280;58380;48.312;9.246;2023-04-27T20:22:26;93573.88;;;7.78;88.47
71057;BME280;58380;48.312;9.246;2023-04-27T20:24:52;93591.63;;;7.88;89.24
